Time;durP1;ratioP1;P1;durP2;ratioP2;P2;SDS_P1;SDS_P2;PMS_P1;PMS_P2;Temp;Humidity;BMP_temperature;BMP_pressure;BME280_temperature;BME280_humidity;BME280_pressure;Samples;Min_cycle;Max_cycle;Signal;HPM_P1;HPM_P2
2022/10/01 00:01:17;;;;;;;9.20;6.57;;;11.80;99.90;;;;;;5126513;27;20034;-95
2022/10/01 00:03:43;;;;;;;8.40;6.18;;;11.70;99.90;;;;;;5141955;27;20039;-94
2022/10/01 00:06:20;;;;;;;9.35;7.00;;;11.70;99.90;;;;;;5141441;27;20034;-92
2022/10/01 00:08:48;;;;;;;9.10;7.03;;;11.80;99.90;;;;;;5141089;27;20072;-83
2022/10/01 00:11:17;;;;;;;7.35;6.50;;;11.70;99.90;;;;;;5154024;27;20039;-82
2022/10/01 00:13:43;;;;;;;8.15;6.93;;;11.60;99.90;;;;;;5136587;27;20081;-82
2022/10/01 00:16:12;;;;;;;10.65;7.18;;;11.60;99.90;;;;;;5136412;27;20035;-83
2022/10/01 00:18:39;;;;;;;9.75;6.90;;;11.60;99.90;;;;;;5154049;27;20050;-83
2022/10/01 00:21:10;;;;;;;8.63;6.93;;;11.60;99.90;;;;;;5135912;27;20117;-82
2022/10/01 00:23:37;;;;;;;8.45;7.03;;;11.50;99.90;;;;;;5132761;27;20098;-83
2022/10/01 00:26:16;;;;;;;9.02;7.35;;;11.50;99.90;;;;;;5136298;27;20498;-83
2022/10/01 00:28:44;;;;;;;10.25;7.85;;;11.50;99.90;;;;;;5158599;27;20057;-82
2022/10/01 00:31:10;;;;;;;11.55;8.13;;;11.50;99.90;;;;;;5157449;27;20035;-82
2022/10/01 00:33:37;;;;;;;11.25;7.55;;;11.50;99.90;;;;;;5140069;27;20039;-82
2022/10/01 00:36:07;;;;;;;11.80;8.05;;;11.50;99.90;;;;;;5142260;27;20034;-82
2022/10/01 00:38:33;;;;;;;10.98;8.40;;;11.50;99.90;;;;;;5161281;27;20034;-82
2022/10/01 00:41:00;;;;;;;11.82;8.02;;;11.40;99.90;;;;;;5143038;27;20031;-82
2022/10/01 00:43:31;;;;;;;11.35;8.75;;;11.40;99.90;;;;;;5158664;27;20038;-84
2022/10/01 00:46:06;;;;;;;10.85;8.50;;;11.40;99.90;;;;;;5140330;27;20091;-83
2022/10/01 00:48:38;;;;;;;11.20;8.48;;;11.40;99.90;;;;;;5157490;27;20034;-83
2022/10/01 00:51:05;;;;;;;11.38;8.70;;;11.40;99.90;;;;;;5134178;27;20438;-83
2022/10/01 00:53:32;;;;;;;11.07;8.13;;;11.30;99.90;;;;;;5128388;27;20039;-82
2022/10/01 00:55:58;;;;;;;10.52;7.53;;;11.40;99.90;;;;;;5139269;27;20066;-82
2022/10/01 00:58:25;;;;;;;9.30;7.65;;;11.40;99.90;;;;;;5107739;27;20027;-82
2022/10/01 01:00:54;;;;;;;10.07;8.35;;;11.30;99.90;;;;;;5122234;27;20039;-82
2022/10/01 01:03:20;;;;;;;9.40;8.43;;;11.40;99.90;;;;;;5156826;27;20042;-82
2022/10/01 01:05:46;;;;;;;9.68;8.68;;;11.30;99.90;;;;;;5157157;27;20030;-82
2022/10/01 01:08:13;;;;;;;9.55;8.48;;;11.30;99.90;;;;;;5121548;27;20034;-82
2022/10/01 01:11:17;;;;;;;10.32;8.55;;;11.30;99.90;;;;;;5156628;27;20042;-82
2022/10/01 01:13:51;;;;;;;11.57;8.80;;;11.30;99.90;;;;;;5096752;28;20051;-82
2022/10/01 01:16:30;;;;;;;11.70;9.38;;;11.30;99.90;;;;;;5131093;27;20057;-83
2022/10/01 01:19:21;;;;;;;12.95;9.93;;;11.30;99.90;;;;;;5155975;27;20600;-82
2022/10/01 01:21:51;;;;;;;13.65;9.73;;;11.30;99.90;;;;;;5138290;27;20121;-83
2022/10/01 01:24:42;;;;;;;10.70;9.13;;;11.30;99.90;;;;;;5138144;27;20478;-82
2022/10/01 01:27:26;;;;;;;12.10;9.23;;;11.20;99.90;;;;;;5139085;27;20573;-83
2022/10/01 01:30:03;;;;;;;12.10;9.40;;;11.20;99.90;;;;;;5137878;27;20050;-82
2022/10/01 01:32:45;;;;;;;11.40;8.75;;;11.20;99.90;;;;;;5138245;27;20043;-82
2022/10/01 01:35:26;;;;;;;11.30;9.10;;;11.20;99.90;;;;;;5138054;27;20039;-88
2022/10/01 01:37:57;;;;;;;10.43;7.85;;;11.20;99.90;;;;;;5138568;27;20502;-87
2022/10/01 01:40:24;;;;;;;9.15;8.20;;;11.20;99.90;;;;;;5119267;27;20035;-86
2022/10/01 01:42:52;;;;;;;13.07;9.20;;;11.20;99.90;;;;;;5102020;27;20143;-86
2022/10/01 01:45:22;;;;;;;10.50;8.40;;;11.20;99.90;;;;;;5140811;27;20078;-86
2022/10/01 01:47:54;;;;;;;11.60;8.48;;;11.20;99.90;;;;;;5156465;27;20050;-86
2022/10/01 01:50:24;;;;;;;13.25;8.68;;;11.20;99.90;;;;;;5139145;27;20100;-86
2022/10/01 01:52:52;;;;;;;9.43;7.70;;;11.20;99.90;;;;;;5123630;27;20122;-90
2022/10/01 01:55:20;;;;;;;8.98;8.02;;;11.20;99.90;;;;;;5127796;27;20043;-89
2022/10/01 01:57:46;;;;;;;8.88;7.70;;;11.20;99.90;;;;;;5157524;27;20098;-89
2022/10/01 02:00:13;;;;;;;11.55;8.52;;;11.20;99.90;;;;;;5123183;27;20118;-89
2022/10/01 02:02:42;;;;;;;11.35;8.50;;;11.20;99.90;;;;;;5139774;27;20149;-89
2022/10/01 02:05:12;;;;;;;9.35;7.95;;;11.20;99.90;;;;;;5122200;27;20035;-88
2022/10/01 02:07:57;;;;;;;9.30;6.40;;;11.20;99.90;;;;;;5139698;27;20061;-90
2022/10/01 02:10:31;;;;;;;8.98;7.78;;;11.40;99.90;;;;;;5123838;27;20062;-89
2022/10/01 02:13:37;;;;;;;8.80;7.20;;;11.20;99.90;;;;;;5139999;27;20431;-90
2022/10/01 02:16:17;;;;;;;10.27;8.45;;;11.20;99.90;;;;;;5144168;27;20475;-90
2022/10/01 02:19:12;;;;;;;10.55;8.15;;;11.10;99.90;;;;;;5135988;27;20087;-92
2022/10/01 02:21:45;;;;;;;10.25;8.27;;;11.10;99.90;;;;;;5134053;27;20432;-90
2022/10/01 02:24:47;;;;;;;12.98;8.20;;;11.10;99.90;;;;;;5148263;27;20045;-89
2022/10/01 02:27:28;;;;;;;11.27;8.18;;;11.10;99.90;;;;;;5140475;27;20082;-90
2022/10/01 02:29:58;;;;;;;12.15;7.57;;;11.10;99.90;;;;;;5157909;27;20034;-89
2022/10/01 02:32:25;;;;;;;8.63;6.53;;;11.20;99.90;;;;;;5139516;27;20039;-89
2022/10/01 02:34:52;;;;;;;8.43;6.88;;;11.20;99.90;;;;;;5122823;27;20118;-89
2022/10/01 02:37:24;;;;;;;8.60;6.70;;;11.20;99.90;;;;;;5111391;28;20484;-87
2022/10/01 02:39:51;;;;;;;8.30;7.00;;;11.20;99.90;;;;;;5136482;27;20046;-86
2022/10/01 02:42:20;;;;;;;9.30;7.00;;;11.20;99.90;;;;;;5122639;27;20039;-86
2022/10/01 02:44:48;;;;;;;7.95;6.97;;;11.20;99.90;;;;;;5139010;27;20486;-86
2022/10/01 02:47:24;;;;;;;8.13;6.35;;;11.20;99.90;;;;;;5139344;27;20043;-86
2022/10/01 02:49:51;;;;;;;7.10;5.95;;;11.20;99.90;;;;;;5137943;27;20046;-86
2022/10/01 02:52:22;;;;;;;7.13;6.07;;;11.10;99.90;;;;;;5122153;27;20426;-86
2022/10/01 02:55:00;;;;;;;7.72;6.00;;;11.30;99.90;;;;;;5155778;27;20104;-81
2022/10/01 02:57:26;;;;;;;8.63;6.30;;;11.20;99.90;;;;;;5133916;27;20096;-81
2022/10/01 03:00:06;;;;;;;5.88;4.85;;;11.20;99.90;;;;;;5122664;27;20043;-82
2022/10/01 03:02:32;;;;;;;8.50;5.93;;;11.20;99.90;;;;;;5144659;27;20046;-82
2022/10/01 03:04:58;;;;;;;6.22;5.22;;;11.20;99.90;;;;;;5133424;27;20046;-82
2022/10/01 03:07:30;;;;;;;6.97;5.43;;;11.20;99.90;;;;;;5118832;27;20046;-81
2022/10/01 03:09:56;;;;;;;8.88;5.97;;;11.20;99.90;;;;;;5128740;27;20031;-81
2022/10/01 03:12:22;;;;;;;5.60;4.90;;;11.30;99.90;;;;;;5132282;27;20054;-81
2022/10/01 03:14:48;;;;;;;5.18;4.60;;;11.30;99.90;;;;;;5134138;28;20047;-82
2022/10/01 03:17:15;;;;;;;12.90;5.75;;;11.10;99.90;;;;;;5100962;28;20031;-81
2022/10/01 03:19:41;;;;;;;7.43;4.97;;;11.30;99.90;;;;;;5133931;28;20042;-81
2022/10/01 03:22:08;;;;;;;6.88;5.70;;;11.30;99.90;;;;;;5117502;28;20051;-81
2022/10/01 03:24:34;;;;;;;6.03;5.18;;;11.30;99.90;;;;;;5134795;27;20118;-81
2022/10/01 03:27:00;;;;;;;5.72;5.10;;;11.30;99.90;;;;;;5117063;28;20118;-81
2022/10/01 03:29:26;;;;;;;6.40;5.10;;;11.30;99.90;;;;;;5148170;27;20066;-81
2022/10/01 03:31:52;;;;;;;7.22;4.75;;;11.20;99.90;;;;;;5137233;27;20042;-81
2022/10/01 03:34:18;;;;;;;5.95;5.05;;;11.20;99.90;;;;;;5137738;27;20130;-81
2022/10/01 03:36:47;;;;;;;7.38;5.35;;;11.20;99.90;;;;;;5137742;27;20031;-81
2022/10/01 03:39:13;;;;;;;5.60;5.00;;;11.20;99.90;;;;;;5139856;27;20032;-81
2022/10/01 03:41:39;;;;;;;8.65;5.93;;;11.40;99.90;;;;;;5135557;27;20073;-82
2022/10/01 03:44:05;;;;;;;7.93;5.38;;;11.20;99.90;;;;;;5137506;27;20393;-81
2022/10/01 03:46:31;;;;;;;5.85;4.80;;;11.20;99.90;;;;;;5137620;27;20417;-82
2022/10/01 03:48:58;;;;;;;5.45;4.95;;;11.20;99.90;;;;;;5138009;27;20046;-82
2022/10/01 03:51:24;;;;;;;5.22;4.15;;;11.20;99.90;;;;;;5121202;27;20043;-81
2022/10/01 03:53:49;;;;;;;5.25;4.30;;;11.20;99.90;;;;;;5120537;27;20042;-82
2022/10/01 03:56:16;;;;;;;6.40;4.68;;;11.20;99.90;;;;;;5103658;27;20034;-82
2022/10/01 03:58:41;;;;;;;5.05;4.43;;;11.20;99.90;;;;;;5120785;27;20039;-82
2022/10/01 04:01:07;;;;;;;4.43;3.72;;;11.20;99.90;;;;;;5122147;27;20035;-82
2022/10/01 04:03:33;;;;;;;4.50;3.70;;;11.20;99.90;;;;;;5120303;27;20035;-82
2022/10/01 04:05:59;;;;;;;5.50;3.83;;;11.30;99.90;;;;;;5102138;27;20131;-82
2022/10/01 04:08:25;;;;;;;4.18;3.30;;;11.30;99.90;;;;;;5106495;27;20038;-81
2022/10/01 04:10:50;;;;;;;4.75;3.53;;;11.30;99.90;;;;;;5107251;27;20031;-83
2022/10/01 04:13:16;;;;;;;3.53;3.22;;;11.30;99.90;;;;;;5123888;27;20091;-82
2022/10/01 04:15:42;;;;;;;3.55;3.05;;;11.20;99.90;;;;;;5141933;27;20360;-82
2022/10/01 04:18:08;;;;;;;4.75;3.08;;;11.20;99.90;;;;;;5120768;27;20042;-82
2022/10/01 04:20:36;;;;;;;4.15;3.03;;;11.30;99.90;;;;;;5129166;27;20038;-82
2022/10/01 04:23:03;;;;;;;4.05;2.88;;;11.30;99.90;;;;;;5142101;27;20038;-82
2022/10/01 04:25:29;;;;;;;3.58;2.50;;;11.40;99.90;;;;;;5107529;27;20095;-82
2022/10/01 04:28:04;;;;;;;3.00;2.70;;;11.30;99.90;;;;;;5139909;27;20043;-82
2022/10/01 04:30:35;;;;;;;4.18;2.75;;;11.30;99.90;;;;;;5140878;27;20087;-82
2022/10/01 04:33:02;;;;;;;4.07;2.80;;;11.30;99.90;;;;;;5156803;27;20062;-81
2022/10/01 04:35:28;;;;;;;2.78;2.38;;;11.30;99.90;;;;;;5113144;27;20042;-83
2022/10/01 04:38:02;;;;;;;2.65;2.25;;;11.30;99.90;;;;;;5119207;27;20034;-81
2022/10/01 04:40:34;;;;;;;5.38;2.70;;;11.70;99.90;;;;;;5123736;27;20027;-81
2022/10/01 04:43:04;;;;;;;2.90;2.28;;;11.50;99.90;;;;;;5139895;27;20081;-81
2022/10/01 04:45:31;;;;;;;2.70;2.50;;;11.40;99.90;;;;;;5141177;27;20031;-81
2022/10/01 04:47:58;;;;;;;4.20;2.80;;;11.50;99.90;;;;;;5140851;27;20047;-81
2022/10/01 04:50:25;;;;;;;4.05;3.00;;;11.50;99.90;;;;;;5141092;27;20099;-81
2022/10/01 04:52:52;;;;;;;4.15;2.95;;;11.50;99.90;;;;;;5140155;27;20043;-82
2022/10/01 04:55:19;;;;;;;5.95;3.38;;;11.50;99.90;;;;;;5153907;27;20031;-81
2022/10/01 04:57:45;;;;;;;5.30;3.47;;;11.50;99.90;;;;;;5139905;27;20117;-82
2022/10/01 05:00:14;;;;;;;4.28;3.55;;;11.60;99.90;;;;;;5122751;27;20035;-81
2022/10/01 05:02:43;;;;;;;3.90;3.50;;;11.60;99.90;;;;;;5141119;27;20064;-82
2022/10/01 05:05:09;;;;;;;4.03;3.60;;;11.70;99.90;;;;;;5141144;27;20064;-82
2022/10/01 05:07:37;;;;;;;6.45;4.07;;;11.60;99.90;;;;;;5157175;27;20042;-81
2022/10/01 05:10:03;;;;;;;4.82;4.32;;;11.70;99.90;;;;;;5144454;27;20023;-81
2022/10/01 05:12:29;;;;;;;7.45;5.03;;;11.70;99.90;;;;;;5134832;27;20114;-81
2022/10/01 05:14:55;;;;;;;6.95;4.68;;;11.70;99.90;;;;;;5140321;27;20466;-82
2022/10/01 05:17:22;;;;;;;6.60;4.97;;;11.70;99.90;;;;;;5123423;27;20038;-81
2022/10/01 05:19:48;;;;;;;8.18;5.15;;;11.80;99.90;;;;;;5140912;27;20039;-81
2022/10/01 05:22:14;;;;;;;6.60;5.50;;;11.80;99.90;;;;;;5124436;27;20087;-82
2022/10/01 05:24:40;;;;;;;8.52;5.78;;;11.80;99.90;;;;;;5123731;27;20098;-82
2022/10/01 05:27:11;;;;;;;5.95;5.45;;;11.80;99.90;;;;;;5123279;27;20038;-83
2022/10/01 05:29:37;;;;;;;6.72;6.13;;;11.80;99.90;;;;;;5104364;27;20497;-82
2022/10/01 05:32:03;;;;;;;6.60;6.00;;;11.90;99.90;;;;;;5103985;27;20035;-82
2022/10/01 05:34:29;;;;;;;6.25;5.75;;;11.90;99.90;;;;;;5130182;27;20031;-82
2022/10/01 05:36:55;;;;;;;11.07;6.30;;;11.90;99.90;;;;;;5103709;27;20070;-82
2022/10/01 05:39:20;;;;;;;8.32;7.00;;;11.90;99.90;;;;;;5120546;27;20467;-82
2022/10/01 05:41:46;;;;;;;8.07;6.28;;;11.90;99.90;;;;;;5120376;27;20047;-82
2022/10/01 05:44:12;;;;;;;7.28;6.57;;;11.90;99.90;;;;;;5141790;27;20043;-82
2022/10/01 05:46:37;;;;;;;7.75;6.63;;;11.90;99.90;;;;;;5141211;27;20375;-82
2022/10/01 05:49:05;;;;;;;7.57;6.85;;;11.90;99.90;;;;;;5106632;27;20133;-82
2022/10/01 05:51:31;;;;;;;9.55;7.22;;;11.90;99.90;;;;;;5140410;27;20051;-82
2022/10/01 05:54:00;;;;;;;11.32;7.45;;;11.80;99.90;;;;;;5140286;27;20039;-82
2022/10/01 05:56:25;;;;;;;8.23;7.35;;;11.90;99.90;;;;;;5140338;27;20507;-81
2022/10/01 05:58:51;;;;;;;8.52;7.55;;;11.90;99.90;;;;;;5139899;27;20108;-82
2022/10/01 06:01:17;;;;;;;8.98;8.02;;;11.90;99.90;;;;;;5106538;27;20037;-82
2022/10/01 06:03:43;;;;;;;8.48;7.68;;;11.90;99.90;;;;;;5122854;27;20043;-82
2022/10/01 06:06:09;;;;;;;9.40;8.10;;;11.90;99.90;;;;;;5106122;27;20038;-82
2022/10/01 06:08:36;;;;;;;10.60;8.30;;;11.90;99.90;;;;;;5122566;27;20486;-83
2022/10/01 06:11:03;;;;;;;9.25;8.35;;;11.90;99.90;;;;;;5119157;27;20042;-82
2022/10/01 06:13:29;;;;;;;9.43;8.27;;;12.00;99.90;;;;;;5104113;27;20049;-82
2022/10/01 06:15:55;;;;;;;8.75;7.95;;;12.00;99.90;;;;;;5138779;27;20130;-82
2022/10/01 06:18:21;;;;;;;9.68;8.68;;;12.10;99.90;;;;;;5104527;27;20368;-82
2022/10/01 06:20:46;;;;;;;9.20;8.23;;;12.10;99.90;;;;;;5122271;27;20033;-82
2022/10/01 06:23:13;;;;;;;9.73;8.32;;;12.00;99.90;;;;;;5122093;27;20402;-83
2022/10/01 06:25:40;;;;;;;10.48;8.27;;;12.10;99.90;;;;;;5122481;27;20363;-83
2022/10/01 06:28:08;;;;;;;12.02;8.80;;;12.10;99.90;;;;;;5138910;27;20091;-82
2022/10/01 06:30:37;;;;;;;10.77;8.85;;;12.10;99.90;;;;;;5138684;27;20630;-83
2022/10/01 06:33:05;;;;;;;9.50;8.52;;;12.10;99.90;;;;;;5138628;27;20435;-84
2022/10/01 06:35:32;;;;;;;9.50;8.48;;;12.10;99.90;;;;;;5156254;27;20439;-85
2022/10/01 06:38:00;;;;;;;9.38;8.48;;;12.20;99.90;;;;;;5121756;27;20035;-83
2022/10/01 06:40:28;;;;;;;10.25;8.15;;;12.20;99.90;;;;;;5138359;27;20125;-83
2022/10/01 06:42:57;;;;;;;9.63;8.73;;;12.20;99.90;;;;;;5156482;27;20130;-83
2022/10/01 06:45:26;;;;;;;8.95;8.05;;;12.30;99.90;;;;;;5105054;27;20038;-83
2022/10/01 06:47:56;;;;;;;11.77;8.65;;;12.20;99.90;;;;;;5138343;27;20046;-83
2022/10/01 06:50:23;;;;;;;10.02;8.98;;;12.20;99.90;;;;;;5155266;27;20050;-83
2022/10/01 06:52:49;;;;;;;9.13;8.23;;;12.20;99.90;;;;;;5121167;27;20039;-83
2022/10/01 06:55:19;;;;;;;11.15;8.88;;;12.30;99.90;;;;;;5104584;27;20054;-83
2022/10/01 06:57:45;;;;;;;12.18;8.95;;;12.30;99.90;;;;;;5138385;27;20498;-82
2022/10/01 07:00:13;;;;;;;12.82;9.18;;;12.30;99.90;;;;;;5138245;27;20026;-83
2022/10/01 07:02:39;;;;;;;11.60;8.65;;;12.40;99.90;;;;;;5129851;27;20375;-83
2022/10/01 07:05:06;;;;;;;10.52;8.10;;;12.40;99.90;;;;;;5116609;27;20122;-82
2022/10/01 07:07:35;;;;;;;10.75;8.63;;;12.40;99.90;;;;;;5104428;27;20039;-82
2022/10/01 07:10:03;;;;;;;12.60;8.57;;;12.50;99.90;;;;;;5138604;27;20046;-82
2022/10/01 07:12:29;;;;;;;9.25;7.60;;;12.50;99.90;;;;;;5155581;27;20038;-82
2022/10/01 07:14:55;;;;;;;11.13;8.90;;;12.50;99.90;;;;;;5120356;27;20137;-83
2022/10/01 07:17:21;;;;;;;12.65;8.52;;;12.60;99.90;;;;;;5120505;27;20035;-83
2022/10/01 07:19:47;;;;;;;11.13;7.93;;;12.60;99.90;;;;;;5120304;27;20042;-82
2022/10/01 07:22:13;;;;;;;11.43;7.93;;;12.70;99.90;;;;;;5115955;28;20091;-82
2022/10/01 07:24:38;;;;;;;13.27;8.32;;;12.70;99.90;;;;;;5133504;27;20508;-82
2022/10/01 07:27:04;;;;;;;10.77;7.88;;;12.80;99.90;;;;;;5120607;27;20118;-82
2022/10/01 07:29:30;;;;;;;8.35;7.47;;;12.80;99.90;;;;;;5139766;27;20117;-82
2022/10/01 07:32:00;;;;;;;11.88;7.70;;;12.90;99.90;;;;;;5148045;27;20110;-83
2022/10/01 07:34:29;;;;;;;15.02;7.47;;;12.90;99.90;;;;;;5134133;27;20062;-82
2022/10/01 07:36:55;;;;;;;12.18;7.10;;;12.90;99.90;;;;;;5141061;27;20034;-81
2022/10/01 07:39:22;;;;;;;10.93;6.60;;;13.10;99.90;;;;;;5123354;27;20030;-81
2022/10/01 07:41:50;;;;;;;10.05;6.95;;;13.10;99.90;;;;;;5122404;27;20039;-80
2022/10/01 07:44:15;;;;;;;13.32;6.40;;;13.20;99.90;;;;;;5152408;27;20054;-81
2022/10/01 07:46:41;;;;;;;12.65;6.38;;;13.30;99.90;;;;;;5121772;27;20125;-82
2022/10/01 07:49:08;;;;;;;8.80;5.13;;;13.30;99.90;;;;;;5141888;27;20034;-82
2022/10/01 07:51:35;;;;;;;10.70;5.72;;;13.40;99.90;;;;;;5159270;27;20050;-82
2022/10/01 07:54:02;;;;;;;8.75;5.18;;;13.40;99.90;;;;;;5142884;27;20046;-80
2022/10/01 07:56:28;;;;;;;11.30;4.95;;;13.50;99.90;;;;;;5124268;27;20046;-81
2022/10/01 07:58:55;;;;;;;12.35;4.53;;;13.50;99.90;;;;;;5156596;27;20033;-82
2022/10/01 08:01:21;;;;;;;6.70;4.45;;;13.60;99.90;;;;;;5159722;27;20043;-84
2022/10/01 08:03:49;;;;;;;13.10;4.90;;;13.70;99.90;;;;;;5108137;27;20498;-83
2022/10/01 08:06:17;;;;;;;10.05;3.60;;;13.80;99.90;;;;;;5141965;27;20489;-81
2022/10/01 08:08:42;;;;;;;14.80;4.30;;;13.80;99.90;;;;;;5158984;27;20580;-82
2022/10/01 08:11:09;;;;;;;10.93;3.65;;;13.80;99.90;;;;;;5124251;27;20030;-82
2022/10/01 08:13:36;;;;;;;12.63;4.03;;;13.80;99.90;;;;;;5123956;27;20038;-83
2022/10/01 08:16:08;;;;;;;15.65;3.80;;;13.80;99.90;;;;;;5128279;27;20094;-82
2022/10/01 08:18:35;;;;;;;11.23;3.15;;;13.90;99.90;;;;;;5159315;27;20041;-82
2022/10/01 08:21:02;;;;;;;15.43;3.20;;;13.90;99.90;;;;;;5159471;27;20054;-82
2022/10/01 08:23:31;;;;;;;13.00;3.42;;;13.90;99.90;;;;;;5141781;27;20450;-82
2022/10/01 08:26:06;;;;;;;10.48;3.13;;;13.90;99.90;;;;;;5124976;27;20070;-82
2022/10/01 08:28:32;;;;;;;9.27;3.17;;;13.90;99.90;;;;;;5141823;27;20115;-82
2022/10/01 08:30:58;;;;;;;8.65;3.13;;;14.10;99.90;;;;;;5124246;27;20034;-82
2022/10/01 08:33:24;;;;;;;10.85;3.55;;;14.10;99.90;;;;;;5125479;27;20458;-86
2022/10/01 08:35:50;;;;;;;8.95;3.15;;;14.20;99.90;;;;;;5126487;27;20035;-86
2022/10/01 08:38:18;;;;;;;10.73;3.10;;;14.30;99.90;;;;;;5129716;27;20681;-86
2022/10/01 08:40:47;;;;;;;10.82;3.10;;;14.50;99.90;;;;;;5160124;27;20030;-86
2022/10/01 08:43:23;;;;;;;10.45;3.00;;;14.60;99.90;;;;;;5159808;27;20043;-85
2022/10/01 08:45:52;;;;;;;9.40;2.58;;;14.70;99.90;;;;;;5142280;27;21581;-85
2022/10/01 08:48:45;;;;;;;9.38;2.20;;;14.90;99.90;;;;;;5147644;27;20039;-82
2022/10/01 08:51:15;;;;;;;9.95;2.30;;;14.90;99.90;;;;;;5119963;27;20096;-80
2022/10/01 08:53:46;;;;;;;7.97;1.70;;;14.90;99.90;;;;;;5135024;27;20392;-82
2022/10/01 08:56:23;;;;;;;5.68;1.63;;;14.90;99.90;;;;;;5140679;27;20432;-82
2022/10/01 08:58:59;;;;;;;6.03;1.40;;;14.80;99.90;;;;;;5141039;27;20515;-82
2022/10/01 09:01:25;;;;;;;;;;;14.80;99.90;;;;;;5140485;27;20035;-81
2022/10/01 09:03:51;;;;;;;5.28;1.48;;;14.70;99.90;;;;;;5140742;27;19922;-82
2022/10/01 09:06:25;;;;;;;5.32;1.42;;;14.70;99.90;;;;;;5153122;27;20466;-82
2022/10/01 09:09:15;;;;;;;4.93;1.42;;;14.60;99.90;;;;;;5137049;27;20035;-81
2022/10/01 09:12:03;;;;;;;3.20;0.90;;;14.70;99.90;;;;;;5119695;27;20035;-81
2022/10/01 09:15:23;;;;;;;3.95;1.23;;;14.70;99.90;;;;;;5137086;27;20047;-81
2022/10/01 09:17:49;;;;;;;4.68;1.17;;;14.70;99.90;;;;;;5061259;28;20086;-83
2022/10/01 09:20:26;;;;;;;3.10;1.10;;;14.80;99.90;;;;;;5132539;27;20043;-82
2022/10/01 09:23:25;;;;;;;4.88;1.20;;;14.80;99.90;;;;;;5120650;27;20043;-82
2022/10/01 09:25:50;;;;;;;4.72;1.10;;;14.80;99.90;;;;;;5132241;27;20039;-82
2022/10/01 09:28:20;;;;;;;4.05;1.13;;;14.80;99.90;;;;;;5122979;27;20046;-83
2022/10/01 09:31:18;;;;;;;2.83;1.20;;;14.80;99.90;;;;;;5133056;27;20360;-81
2022/10/01 09:34:09;;;;;;;6.03;1.58;;;14.80;99.90;;;;;;5118557;27;20062;-80
2022/10/01 09:37:04;;;;;;;5.82;1.80;;;14.90;99.90;;;;;;5151842;27;20031;-81
2022/10/01 09:39:50;;;;;;;10.18;1.58;;;14.90;99.90;;;;;;5174565;27;20023;-81
2022/10/01 09:42:17;;;;;;;8.02;2.03;;;15.00;99.90;;;;;;5138834;27;20067;-79
2022/10/01 09:44:43;;;;;;;10.32;1.75;;;15.10;99.90;;;;;;5102653;27;20031;-83
2022/10/01 09:47:19;;;;;;;9.05;2.47;;;15.10;99.90;;;;;;5126919;27;20035;-80
2022/10/01 09:49:45;;;;;;;;;;;15.20;99.90;;;;;;5154478;27;20042;-80
2022/10/01 09:52:34;;;;;;;11.52;2.97;;;15.20;99.90;;;;;;5153727;27;19926;-83
2022/10/01 09:55:05;;;;;;;12.05;2.80;;;15.40;99.90;;;;;;5133852;27;20034;-83
2022/10/01 09:57:43;;;;;;;11.63;2.53;;;15.50;99.90;;;;;;5140323;27;20505;-83
2022/10/01 10:00:16;;;;;;;8.48;2.28;;;15.60;99.90;;;;;;5137920;27;20112;-83
2022/10/01 10:02:47;;;;;;;11.63;2.40;;;15.80;99.90;;;;;;5148145;27;20043;-83
2022/10/01 10:05:18;;;;;;;14.27;3.55;;;16.00;99.90;;;;;;5138901;27;20049;-85
2022/10/01 10:07:48;;;;;;;8.95;2.10;;;16.10;99.90;;;;;;5121355;27;20043;-83
2022/10/01 10:10:34;;;;;;;9.82;2.30;;;16.20;99.90;;;;;;5130931;27;20121;-83
2022/10/01 10:13:04;;;;;;;10.73;2.30;;;16.30;99.90;;;;;;5149049;27;20050;-83
2022/10/01 10:15:31;;;;;;;11.98;2.70;;;16.30;99.90;;;;;;5141652;27;20031;-84
2022/10/01 10:18:16;;;;;;;9.57;2.55;;;16.20;99.90;;;;;;5122684;27;20142;-83
2022/10/01 10:20:51;;;;;;;9.13;2.10;;;16.10;99.90;;;;;;5139008;27;20034;-84
2022/10/01 10:23:20;;;;;;;10.38;2.42;;;16.00;99.90;;;;;;5143206;27;20065;-83
2022/10/01 10:26:01;;;;;;;14.73;2.20;;;16.00;99.90;;;;;;5136587;27;20073;-81
2022/10/01 10:28:37;;;;;;;13.70;2.65;;;16.00;99.90;;;;;;5123948;27;20505;-81
2022/10/01 10:31:12;;;;;;;11.25;2.13;;;16.00;99.90;;;;;;5155574;27;20117;-81
2022/10/01 10:33:50;;;;;;;11.13;2.45;;;16.00;99.90;;;;;;5147197;27;20481;-81
2022/10/01 10:36:18;;;;;;;8.00;1.98;;;15.90;99.90;;;;;;5123540;27;20038;-81
2022/10/01 10:38:49;;;;;;;11.32;2.67;;;15.90;99.90;;;;;;5144717;27;20394;-82
2022/10/01 10:41:21;;;;;;;9.35;2.95;;;15.70;99.90;;;;;;5158310;27;20034;-82
2022/10/01 10:43:48;;;;;;;12.55;2.30;;;15.60;99.90;;;;;;5155014;27;20065;-82
2022/10/01 10:46:29;;;;;;;8.40;1.50;;;15.40;99.90;;;;;;5141553;27;20131;-84
2022/10/01 10:49:06;;;;;;;8.15;2.20;;;15.30;99.90;;;;;;5121787;27;20046;-82
2022/10/01 10:51:55;;;;;;;13.55;2.47;;;15.20;99.90;;;;;;5138952;27;20038;-83
2022/10/01 10:54:30;;;;;;;11.55;2.00;;;15.20;99.90;;;;;;5125795;27;20087;-82
2022/10/01 10:57:28;;;;;;;12.63;2.58;;;15.10;99.90;;;;;;5138905;27;20031;-84
2022/10/01 11:00:18;;;;;;;13.23;2.33;;;15.10;99.90;;;;;;5136926;27;20146;-83
2022/10/01 11:03:00;;;;;;;9.45;2.17;;;15.00;99.90;;;;;;5122901;27;20095;-85
2022/10/01 11:05:31;;;;;;;12.60;2.50;;;14.90;99.90;;;;;;5138455;27;20050;-86
2022/10/01 11:08:03;;;;;;;6.82;1.98;;;14.70;99.90;;;;;;5137194;27;20458;-86
2022/10/01 11:10:53;;;;;;;10.27;1.73;;;14.50;99.90;;;;;;5132009;27;20454;-87
2022/10/01 11:13:36;;;;;;;7.47;1.80;;;14.30;99.90;;;;;;5129285;27;20099;-85
2022/10/01 11:16:44;;;;;;;9.32;1.83;;;14.20;99.90;;;;;;5127738;27;20407;-86
2022/10/01 11:19:32;;;;;;;9.38;2.05;;;14.10;99.90;;;;;;5150926;27;20334;-86
2022/10/01 11:22:26;;;;;;;11.02;1.90;;;14.00;99.90;;;;;;5151211;27;20034;-85
2022/10/01 11:25:13;;;;;;;6.95;1.90;;;13.90;99.90;;;;;;5138026;27;20074;-85
2022/10/01 11:27:42;;;;;;;11.48;2.15;;;13.90;99.90;;;;;;5119260;28;20061;-85
2022/10/01 11:30:30;;;;;;;6.07;1.75;;;13.80;99.90;;;;;;5123705;27;20046;-85
2022/10/01 11:33:32;;;;;;;11.05;2.08;;;13.90;99.90;;;;;;5125327;28;20475;-85
2022/10/01 11:36:23;;;;;;;8.73;1.75;;;13.90;99.90;;;;;;5084079;28;20051;-84
2022/10/01 11:38:57;;;;;;;6.90;1.88;;;14.00;99.90;;;;;;5128346;27;20066;-85
2022/10/01 11:41:26;;;;;;;7.60;1.50;;;14.00;99.90;;;;;;5129224;27;20114;-85
2022/10/01 11:44:00;;;;;;;7.97;1.58;;;14.20;99.90;;;;;;5131129;27;20035;-85
2022/10/01 11:46:44;;;;;;;9.90;1.80;;;14.30;99.90;;;;;;5125990;27;20045;-84
2022/10/01 11:49:27;;;;;;;9.43;1.67;;;14.30;99.90;;;;;;5146389;27;20030;-84
2022/10/01 11:51:59;;;;;;;7.53;1.65;;;14.40;99.90;;;;;;5134124;27;20054;-84
2022/10/01 11:54:29;;;;;;;9.27;2.08;;;14.50;99.90;;;;;;5136423;27;20027;-84
2022/10/01 12:00:00;;;;;;;12.63;2.45;;;14.60;99.90;;;;;;5155285;27;20031;-84
2022/10/01 12:02:33;;;;;;;15.52;2.60;;;14.70;99.90;;;;;;5138005;27;20035;-84
2022/10/01 12:05:08;;;;;;;12.35;2.42;;;14.70;99.90;;;;;;5147120;27;20035;-84
2022/10/01 12:07:50;;;;;;;9.98;2.10;;;14.80;99.90;;;;;;5135890;27;20042;-84
2022/10/01 12:10:44;;;;;;;15.68;2.95;;;14.90;99.90;;;;;;5155025;27;20043;-84
2022/10/01 12:13:23;;;;;;;12.70;2.25;;;14.90;99.90;;;;;;5143295;27;20068;-83
2022/10/01 12:16:16;;;;;;;14.45;2.67;;;14.90;99.90;;;;;;5138414;27;20041;-85
2022/10/01 12:19:18;;;;;;;14.65;2.63;;;14.90;99.90;;;;;;5131646;27;20035;-82
2022/10/01 12:22:20;;;;;;;15.63;2.63;;;14.80;99.90;;;;;;5068032;28;20048;-84
2022/10/01 12:24:52;;;;;;;12.02;2.40;;;14.80;99.90;;;;;;5148741;27;20113;-83
2022/10/01 12:27:39;;;;;;;12.05;2.45;;;14.70;99.90;;;;;;5138024;27;20121;-83
2022/10/01 12:30:29;;;;;;;15.13;2.63;;;14.70;99.90;;;;;;5134724;27;20491;-83
2022/10/01 12:32:57;;;;;;;15.30;2.38;;;14.80;99.90;;;;;;5139956;27;20078;-80
2022/10/01 12:35:41;;;;;;;18.42;3.47;;;14.90;99.90;;;;;;5135112;27;20072;-81
2022/10/01 12:38:19;;;;;;;15.10;3.67;;;15.00;99.90;;;;;;5157888;27;20039;-81
2022/10/01 12:40:44;;;;;;;12.85;2.67;;;15.10;99.90;;;;;;5152043;27;20039;-81
2022/10/01 12:43:46;;;;;;;15.43;3.05;;;15.10;99.90;;;;;;5148833;27;20046;-81
2022/10/01 12:46:24;;;;;;;11.80;2.90;;;15.20;99.90;;;;;;5155325;27;20118;-81
2022/10/01 12:49:06;;;;;;;12.88;2.38;;;15.30;99.90;;;;;;5148366;27;20043;-80
2022/10/01 12:51:51;;;;;;;14.07;3.03;;;15.40;99.90;;;;;;5151245;27;20486;-81
2022/10/01 12:54:56;;;;;;;10.25;2.22;;;15.50;99.90;;;;;;5137264;27;20034;-81
2022/10/01 12:57:35;;;;;;;10.38;2.70;;;15.60;99.90;;;;;;5145591;27;20046;-80
2022/10/01 13:00:18;;;;;;;11.70;2.30;;;15.70;99.90;;;;;;5156564;27;20046;-82
2022/10/01 13:02:47;;;;;;;14.65;3.25;;;15.60;99.90;;;;;;5154453;27;20038;-81
2022/10/01 13:05:24;;;;;;;13.80;2.90;;;15.60;99.90;;;;;;5125081;27;20066;-82
2022/10/01 13:08:05;;;;;;;13.43;2.58;;;15.50;99.90;;;;;;5131019;27;20041;-85
2022/10/01 13:10:42;;;;;;;12.23;2.60;;;15.40;99.90;;;;;;5147775;27;20613;-83
2022/10/01 13:13:24;;;;;;;14.75;2.15;;;15.30;99.90;;;;;;5136668;27;20099;-84